• Join FlightAware (Why Join?)
  • Login
  • US Flag GB Flag 
05:39 EDT


 

Airport Tracker/Info


-or-


 

Live Flight TrackerFlight Track Log ✈ AWI3778 ✈ 27-Jun-2013 ✈ KBTV - KPHL

Flight Track Log - Related Links

Times and Time Zones

All times are in EDT time to prevent confusion due to time zone crossing. See the AWI3778 flight status page for this flight to view local times or setup timezone preferences in your user account.

Time Position Orientation Groundspeed Altitude Reporting Facility
EDT Latitude Longitude Course Direction KTS MPH feet Rate Location/Type
14:05 44.4556 -73.3794 194° South 246 283 6,800  Level Boston Center
14:06 44.3969 -73.3931 189° South 252 290 8,600 2,340 Climbing Boston Center
14:07 43.9699 -73.3388 196° South  Level FlightAware Approximate
14:07 44.2925 -73.4233 192° South 290 334 11,500  Level Boston Center
14:08 43.8705 -73.3776 195° South  Level FlightAware Approximate
14:08 44.2092 -73.4306 184° South 305 351 13,500  Level Boston Center
14:09 43.7708 -73.4144 195° South  Level FlightAware Approximate
14:09 44.1217 -73.4206 175° South 310 357 15,400  Level Boston Center
14:10 43.6711 -73.4511 195° South  Level FlightAware Approximate
14:10 44.0361 -73.4336 186° South 316 364 17,200  Level Boston Center
14:11 43.5713 -73.4874 194° South  Level FlightAware Approximate
14:11 43.9586 -73.4928 209° Southwest 308 354 19,100  Level Boston Center
14:12 43.8828 -73.5606 213° Southwest 318 366 20,200 900 Climbing Boston Center
14:13 43.8031 -73.6281 211° Southwest 329 379 21,000 900 Climbing Boston Center
14:15 43.7106 -73.7067 212° Southwest 347 399 22,200 900 Climbing Boston Center
14:16 43.6286 -73.7711 210° Southwest 347 399 23,000 780 Climbing Boston Center
14:17 43.5400 -73.8436 211° Southwest 352 405 23,800 480 Climbing Boston Center
14:18 43.4539 -73.9131 210° Southwest 362 417 24,000 60 Climbing Boston Center
14:19 43.3653 -73.9908 213° Southwest 375 432 24,000  Level Boston Center
14:20 43.2767 -74.0656 212° Southwest 375 432 24,000  Level Boston Center
14:21 43.1881 -74.1372 211° Southwest 375 432 24,000  Level Boston Center
14:22 43.1014 -74.2117 212° Southwest 375 432 24,000  Level Boston Center
14:23 43.0150 -74.2803 210° Southwest 369 425 24,000  Level Boston Center
14:24 42.9283 -74.3514 211° Southwest 369 425 24,000  Level Boston Center
14:25 42.8417 -74.4222 211° Southwest 369 425 24,000  Level Boston Center
14:26 42.7569 -74.4931 212° Southwest 369 425 24,000  Level Boston Center
14:27 42.6703 -74.5636 211° Southwest 369 425 24,000  Level Boston Center
14:28 42.5856 -74.6339 211° Southwest 369 425 24,000  Level Boston Center
14:29 42.4989 -74.7014 210° Southwest 364 419 24,000  Level Boston Center
14:30 42.4139 -74.7714 211° Southwest 369 425 24,000  Level Boston Center
14:31 42.3272 -74.8383 210° Southwest 369 425 24,000  Level Boston Center
14:32 42.2422 -74.9081 211° Southwest 369 425 24,000 -60 Level Boston Center
14:33 42.1553 -74.9803 212° Southwest 369 425 23,900 -1,560 Descending Boston Center
14:34 42.0156 -75.0922 211° Southwest 351 404 20,000 -1,920 Descending New York Center
14:35 41.9403 -75.1569 213° Southwest 351 404 19,000 -540 Descending New York Center
14:36 41.8544 -75.2236 210° Southwest 359 413 19,000 -360 Level New York Center
14:37 41.7600 -75.3006 211° Southwest 359 413 18,300 -1,380 Descending New York Center
14:38 41.6717 -75.3725 211° Southwest 369 425 16,300 -1,800 Descending New York Center
14:39 41.5858 -75.4414 211° Southwest 369 425 14,700 -1,620 Descending New York Center
14:40 41.5128 -75.5000 211° Southwest 362 417 13,200 -1,380 Descending New York Center
14:41 41.4311 -75.5633 210° Southwest 356 410 12,000 -660 Descending New York Center
14:42 41.3406 -75.6344 211° Southwest 351 404 12,000 -660 Level New York Center
14:43 41.2592 -75.6892 207° Southwest 351 404 10,700 -1,020 Descending New York Center
14:44 41.1681 -75.6769 174° South 324 373 10,000 -360 Descending New York Center
14:45 41.0903 -75.6467 164° South 319 367 10,000  Level New York Center
14:46 40.9914 -75.6175 167° South 331 381 10,000  Level New York Center
14:47 40.9111 -75.5900 165° South 336 387 10,000  Level New York Center
14:48 40.8228 -75.5589 165° South 336 387 10,000  Level New York Center
14:49 40.7344 -75.5281 165° South 336 387 10,000  Level New York Center
14:50 40.6461 -75.5000 166° South 336 387 10,000  Level New York Center
14:51 40.5578 -75.4694 165° South 330 380 10,000  Level New York Center
14:52 40.4775 -75.4419 165° South 325 374 10,000 -360 Level New York Center
14:53 40.3950 -75.4175 167° South 289 333 9,300 -1,380 Descending New York Center
14:54 40.3269 -75.4564 204° Southwest 253 291 7,300 -1,440 Descending New York Center
14:55 40.2653 -75.4306 162° South 238 274 6,500 -1,200 Descending New York Center
14:56 40.2144 -75.4000 155° Southeast 238 274 5,000 -1,260 Descending New York Center
14:57 40.1508 -75.3711 161° South 233 268 4,000 -540 Descending New York Center
14:58 40.1019 -75.3461 159° South 216 249 4,000 -300 Level New York Center
14:59 40.0486 -75.3211 160° South 200 230 3,400 -840 Descending New York Center
15:00 40.0039 -75.2964 157° South 200 230 2,400 -1,020 Descending New York Center